Time;durP1;ratioP1;P1;durP2;ratioP2;P2;SDS_P1;SDS_P2;PMS_P1;PMS_P2;Temp;Humidity;BMP_temperature;BMP_pressure;BME280_temperature;BME280_humidity;BME280_pressure;Samples;Min_cycle;Max_cycle;Signal;HPM_P1;HPM_P2
2021/11/25 00:01:41;;;;;;;21.20;11.65;;;1.90;77.90;;;;;;5051618;28;20475;-67
2021/11/25 00:04:07;;;;;;;22.35;12.10;;;1.90;78.20;;;;;;5052547;28;20036;-71
2021/11/25 00:06:32;;;;;;;41.47;26.10;;;1.90;78.30;;;;;;5052299;28;20380;-65
2021/11/25 00:08:58;;;;;;;27.23;16.77;;;1.80;78.40;;;;;;5059467;28;20039;-67
2021/11/25 00:11:25;;;;;;;26.77;15.38;;;1.80;78.80;;;;;;5055401;28;20393;-63
2021/11/25 00:13:51;;;;;;;28.33;17.08;;;1.70;78.80;;;;;;5054845;28;20020;-64
2021/11/25 00:16:17;;;;;;;20.27;12.32;;;1.60;79.00;;;;;;5058249;28;20033;-63
2021/11/25 00:18:43;;;;;;;23.80;13.20;;;1.60;79.20;;;;;;5051525;28;20024;-64
2021/11/25 00:21:09;;;;;;;22.30;12.55;;;1.50;79.80;;;;;;5054544;28;20109;-63
2021/11/25 00:23:36;;;;;;;21.70;12.25;;;1.60;80.00;;;;;;5052616;28;20383;-64
2021/11/25 00:26:03;;;;;;;19.42;11.88;;;1.50;79.80;;;;;;5056499;28;20122;-65
2021/11/25 00:28:30;;;;;;;21.27;12.73;;;1.50;80.20;;;;;;5064623;28;20029;-64
2021/11/25 00:30:55;;;;;;;19.75;12.23;;;1.40;80.30;;;;;;5059987;28;20029;-65
2021/11/25 00:33:21;;;;;;;19.88;11.77;;;1.40;80.50;;;;;;5052160;28;20401;-64
2021/11/25 00:35:47;;;;;;;20.52;12.45;;;1.40;80.40;;;;;;5064156;28;20017;-65
2021/11/25 00:38:13;;;;;;;22.77;12.90;;;1.40;80.60;;;;;;5061128;28;20025;-65
2021/11/25 00:40:38;;;;;;;21.08;12.45;;;1.30;80.70;;;;;;5056829;28;20029;-65
2021/11/25 00:43:04;;;;;;;20.85;11.50;;;1.30;80.80;;;;;;5056968;28;20112;-65
2021/11/25 00:45:30;;;;;;;21.10;12.50;;;1.20;81.00;;;;;;5069381;28;20115;-67
2021/11/25 00:47:55;;;;;;;19.20;11.68;;;1.20;81.20;;;;;;5070441;28;20033;-66
2021/11/25 00:50:21;;;;;;;19.35;12.30;;;1.20;81.20;;;;;;5068390;28;20048;-64
2021/11/25 00:52:48;;;;;;;19.73;12.15;;;1.10;81.30;;;;;;5069507;28;20017;-66
2021/11/25 00:55:14;;;;;;;20.25;12.18;;;1.10;81.40;;;;;;5059923;28;20029;-66
2021/11/25 00:57:40;;;;;;;18.83;11.30;;;1.10;81.70;;;;;;5050511;28;20022;-64
2021/11/25 01:00:10;;;;;;;19.52;11.77;;;1.00;81.60;;;;;;5051144;28;20095;-65
2021/11/25 01:02:36;;;;;;;16.45;10.70;;;1.10;81.80;;;;;;5062177;28;20125;-65
2021/11/25 01:05:02;;;;;;;18.02;11.00;;;1.00;81.70;;;;;;5051164;28;20112;-65
2021/11/25 01:07:28;;;;;;;19.08;10.90;;;0.90;81.90;;;;;;5051172;28;20025;-65
2021/11/25 01:09:54;;;;;;;18.52;11.30;;;0.90;81.90;;;;;;5049126;28;20409;-66
2021/11/25 01:12:20;;;;;;;18.58;11.40;;;0.90;82.10;;;;;;5050830;28;20021;-66
2021/11/25 01:14:46;;;;;;;20.75;11.88;;;0.80;82.20;;;;;;5051032;28;20025;-65
2021/11/25 01:17:12;;;;;;;17.70;11.15;;;0.80;82.30;;;;;;5051377;28;20025;-65
2021/11/25 01:19:38;;;;;;;18.90;11.18;;;0.80;82.40;;;;;;5051672;28;20591;-65
2021/11/25 01:22:04;;;;;;;19.90;11.23;;;0.70;82.50;;;;;;5051805;28;20036;-65
2021/11/25 01:24:30;;;;;;;20.25;11.32;;;0.70;82.60;;;;;;5051651;28;20033;-65
2021/11/25 01:26:56;;;;;;;21.38;12.25;;;0.70;82.70;;;;;;5051142;28;20032;-64
2021/11/25 01:29:22;;;;;;;21.08;12.30;;;0.60;82.70;;;;;;5051581;28;20082;-66
2021/11/25 01:31:48;;;;;;;22.40;13.88;;;0.60;82.90;;;;;;5051486;28;20419;-66
2021/11/25 01:34:14;;;;;;;22.50;13.32;;;0.60;83.10;;;;;;5051561;28;20123;-66
2021/11/25 01:36:40;;;;;;;21.92;12.43;;;0.60;83.30;;;;;;5050825;28;20032;-66
2021/11/25 01:39:06;;;;;;;22.92;12.88;;;0.50;83.40;;;;;;5051454;28;20492;-66
2021/11/25 01:41:32;;;;;;;23.90;13.93;;;0.50;83.40;;;;;;5051503;28;20028;-66
2021/11/25 01:43:58;;;;;;;22.70;13.98;;;0.50;83.70;;;;;;5051378;28;20021;-66
2021/11/25 01:46:24;;;;;;;22.90;14.38;;;0.40;83.90;;;;;;5051190;28;20380;-67
2021/11/25 01:48:51;;;;;;;22.38;14.07;;;0.40;84.10;;;;;;5051452;28;20055;-65
2021/11/25 01:51:19;;;;;;;24.92;14.25;;;0.40;84.20;;;;;;5051118;28;20017;-65
2021/11/25 01:53:45;;;;;;;23.13;14.30;;;0.40;84.60;;;;;;5051184;28;20112;-65
2021/11/25 01:56:12;;;;;;;25.23;14.30;;;0.40;84.70;;;;;;5050774;28;20078;-65
2021/11/25 01:58:38;;;;;;;26.88;16.13;;;0.40;84.60;;;;;;5051200;28;20041;-65
2021/11/25 02:01:08;;;;;;;30.33;17.40;;;0.30;84.90;;;;;;5049876;28;20032;-65
2021/11/25 02:03:34;;;;;;;27.27;18.17;;;0.30;85.20;;;;;;5042069;28;20203;-65
2021/11/25 02:06:00;;;;;;;28.80;17.55;;;0.30;85.20;;;;;;5034047;28;20025;-65
2021/11/25 02:08:27;;;;;;;28.15;16.65;;;0.30;85.10;;;;;;5051031;28;20032;-65
2021/11/25 02:10:54;;;;;;;30.48;18.75;;;0.20;85.30;;;;;;5049545;28;20516;-65
2021/11/25 02:13:21;;;;;;;30.38;18.42;;;0.20;85.30;;;;;;5059899;28;20426;-65
2021/11/25 02:15:48;;;;;;;29.27;18.38;;;0.20;85.40;;;;;;5063307;28;20021;-65
2021/11/25 02:18:16;;;;;;;29.95;18.60;;;0.20;85.70;;;;;;5060517;28;20032;-65
2021/11/25 02:20:44;;;;;;;31.33;19.25;;;0.20;85.70;;;;;;5062497;28;20479;-65
2021/11/25 02:23:12;;;;;;;29.73;18.23;;;0.20;85.70;;;;;;5065736;28;20039;-65
2021/11/25 02:25:38;;;;;;;32.33;19.25;;;0.20;85.80;;;;;;5061456;28;20471;-60
2021/11/25 02:28:04;;;;;;;33.22;20.10;;;0.30;85.90;;;;;;5054061;28;20028;-60
2021/11/25 02:30:31;;;;;;;30.45;18.90;;;0.30;85.80;;;;;;5057651;28;20024;-60
2021/11/25 02:32:57;;;;;;;29.08;17.17;;;0.30;85.80;;;;;;5059900;28;20044;-61
2021/11/25 02:35:26;;;;;;;28.35;17.60;;;0.20;85.80;;;;;;5054355;28;20517;-60
2021/11/25 02:37:53;;;;;;;31.77;18.85;;;0.30;86.00;;;;;;5052585;28;20115;-61
2021/11/25 02:40:26;;;;;;;28.48;16.75;;;0.30;86.00;;;;;;5054184;28;20476;-61
2021/11/25 02:42:56;;;;;;;28.27;16.73;;;0.30;85.80;;;;;;5054312;28;20098;-61
2021/11/25 02:45:23;;;;;;;26.25;15.48;;;0.30;85.70;;;;;;5073411;28;20029;-61
2021/11/25 02:47:49;;;;;;;27.42;16.30;;;0.30;85.70;;;;;;5054171;28;20057;-61
2021/11/25 02:50:17;;;;;;;25.77;15.55;;;0.30;85.70;;;;;;5071490;28;20055;-60
2021/11/25 02:52:44;;;;;;;25.83;15.48;;;0.40;85.60;;;;;;5074052;28;20045;-61
2021/11/25 02:55:11;;;;;;;23.88;15.50;;;0.40;85.30;;;;;;5056901;28;20033;-61
2021/11/25 02:57:37;;;;;;;26.40;16.10;;;0.40;85.20;;;;;;5062504;28;20128;-61
2021/11/25 03:00:21;;;;;;;25.55;16.10;;;0.50;85.00;;;;;;5034005;28;20026;-61
2021/11/25 03:02:54;;;;;;;26.13;15.75;;;0.50;84.90;;;;;;5033910;28;20064;-60
2021/11/25 03:05:19;;;;;;;;;;;0.50;84.90;;;;;;5057247;28;20028;-60
2021/11/25 03:07:45;;;;;;;31.20;19.23;;;0.50;84.60;;;;;;5062395;28;19908;-60
2021/11/25 03:10:11;;;;;;;29.20;18.77;;;0.50;84.30;;;;;;5073157;28;20114;-61
2021/11/25 03:12:37;;;;;;;28.23;18.08;;;0.60;84.10;;;;;;5071575;28;20036;-61
2021/11/25 03:15:03;;;;;;;29.73;17.35;;;0.50;84.20;;;;;;5063247;28;20028;-60
2021/11/25 03:17:30;;;;;;;27.15;17.63;;;0.50;84.20;;;;;;5056884;28;20036;-61
2021/11/25 03:19:55;;;;;;;26.05;16.63;;;0.50;84.00;;;;;;5053414;28;20055;-61
2021/11/25 03:22:21;;;;;;;26.40;16.83;;;0.50;84.00;;;;;;5053487;28;20437;-60
2021/11/25 03:24:47;;;;;;;26.10;16.63;;;0.60;83.80;;;;;;5053263;28;20091;-60
2021/11/25 03:27:13;;;;;;;27.20;15.90;;;0.60;83.70;;;;;;5053942;28;20063;-60
2021/11/25 03:29:39;;;;;;;25.38;16.00;;;0.60;83.50;;;;;;5057331;28;20060;-60
2021/11/25 03:32:05;;;;;;;24.25;15.32;;;0.60;83.50;;;;;;5053149;28;20021;-60
2021/11/25 03:34:30;;;;;;;24.58;14.75;;;0.70;83.40;;;;;;5053443;28;20025;-61
2021/11/25 03:36:56;;;;;;;22.95;15.23;;;0.80;82.60;;;;;;5052917;28;20023;-61
2021/11/25 03:39:22;;;;;;;23.20;14.20;;;0.80;82.30;;;;;;5053263;28;20426;-61
2021/11/25 03:41:47;;;;;;;24.50;14.43;;;0.80;82.50;;;;;;5053432;28;20127;-60
2021/11/25 03:44:13;;;;;;;23.95;14.98;;;0.80;82.40;;;;;;5053149;28;20502;-61
2021/11/25 03:46:39;;;;;;;24.15;14.63;;;0.80;82.00;;;;;;5052920;28;20089;-62
2021/11/25 03:49:05;;;;;;;22.88;14.05;;;0.80;82.20;;;;;;5052794;28;20488;-60
2021/11/25 03:51:31;;;;;;;25.23;15.02;;;0.80;82.30;;;;;;5058963;28;20929;-60
2021/11/25 03:53:56;;;;;;;22.20;14.43;;;0.80;82.40;;;;;;5072672;28;20024;-60
2021/11/25 03:56:22;;;;;;;25.73;15.68;;;0.80;82.20;;;;;;5060651;28;20029;-61
2021/11/25 03:58:48;;;;;;;29.17;15.95;;;0.80;82.10;;;;;;5052683;28;20491;-60
2021/11/25 04:01:16;;;;;;;25.60;15.55;;;0.80;82.20;;;;;;5059073;28;20033;-61
2021/11/25 04:03:42;;;;;;;26.13;16.50;;;0.80;82.30;;;;;;5072223;28;20056;-61
2021/11/25 04:06:08;;;;;;;26.95;16.35;;;0.80;82.10;;;;;;5063946;28;20037;-61
2021/11/25 04:08:34;;;;;;;27.25;16.02;;;0.80;82.10;;;;;;5069124;28;20090;-60
2021/11/25 04:11:00;;;;;;;25.95;15.48;;;0.80;81.90;;;;;;5072101;28;20068;-60
2021/11/25 04:13:26;;;;;;;24.10;14.85;;;0.80;81.90;;;;;;5071232;28;20489;-59
2021/11/25 04:15:52;;;;;;;27.60;16.90;;;0.90;81.90;;;;;;5053329;28;20024;-60
2021/11/25 04:18:18;;;;;;;32.50;18.48;;;0.90;81.60;;;;;;5052511;28;20021;-60
2021/11/25 04:20:43;;;;;;;31.73;19.75;;;0.80;81.70;;;;;;5053345;28;20112;-61
2021/11/25 04:23:09;;;;;;;35.03;22.42;;;0.80;81.60;;;;;;5066227;28;20024;-61
2021/11/25 04:25:35;;;;;;;36.97;24.27;;;0.90;81.20;;;;;;5055736;28;20108;-61
2021/11/25 04:28:02;;;;;;;42.70;29.00;;;0.90;81.10;;;;;;5061728;28;20029;-61
2021/11/25 04:35:50;;;;;;;42.15;28.33;;;1.00;80.70;;;;;;5067741;28;20040;-61
2021/11/25 04:38:21;;;;;;;43.00;29.35;;;0.90;80.80;;;;;;5052017;28;20107;-61
2021/11/25 04:40:54;;;;;;;38.03;25.77;;;1.00;80.80;;;;;;5031634;28;20164;-61
2021/11/25 04:43:21;;;;;;;33.30;22.20;;;1.00;81.40;;;;;;5064674;28;20833;-61
2021/11/25 04:45:50;;;;;;;33.70;21.27;;;1.00;80.50;;;;;;5059974;28;20483;-61
2021/11/25 04:48:18;;;;;;;31.55;19.90;;;1.00;80.40;;;;;;5051713;28;20040;-61
2021/11/25 04:50:44;;;;;;;31.15;18.98;;;1.00;80.40;;;;;;5057631;28;20387;-61
2021/11/25 04:53:12;;;;;;;31.02;18.40;;;1.00;80.40;;;;;;5054679;28;20029;-61
2021/11/25 04:55:38;;;;;;;27.25;16.90;;;1.00;80.40;;;;;;5051344;28;20021;-60
2021/11/25 04:58:03;;;;;;;29.02;16.88;;;1.00;80.40;;;;;;5062159;28;20025;-60
2021/11/25 05:00:29;;;;;;;30.73;17.85;;;1.10;80.40;;;;;;5069373;28;20039;-61
2021/11/25 05:02:55;;;;;;;31.13;18.35;;;1.00;80.30;;;;;;5065970;28;20033;-61
2021/11/25 05:05:22;;;;;;;31.13;19.13;;;1.10;80.30;;;;;;5071809;28;20056;-61
2021/11/25 05:07:48;;;;;;;29.13;17.95;;;1.10;80.10;;;;;;5052375;28;20029;-61
2021/11/25 05:10:14;;;;;;;28.52;17.45;;;1.20;80.00;;;;;;5061758;28;20123;-62
2021/11/25 05:12:40;;;;;;;28.50;18.13;;;1.20;80.00;;;;;;5053444;28;20108;-61
2021/11/25 05:15:11;;;;;;;29.08;18.27;;;1.10;80.20;;;;;;5052509;28;20100;-61
2021/11/25 05:17:38;;;;;;;30.98;18.48;;;1.20;80.10;;;;;;5063451;28;20121;-61
2021/11/25 05:20:07;;;;;;;32.08;18.65;;;1.20;80.10;;;;;;5071842;28;20025;-61
2021/11/25 05:22:32;;;;;;;29.77;18.88;;;1.20;80.00;;;;;;5055351;28;20045;-61
2021/11/25 05:24:58;;;;;;;32.17;18.58;;;1.20;79.90;;;;;;5062582;28;20035;-61
2021/11/25 05:27:24;;;;;;;35.40;20.15;;;1.20;79.80;;;;;;5055725;28;20032;-62
2021/11/25 05:29:49;;;;;;;31.58;19.15;;;1.10;79.90;;;;;;5065114;28;20103;-62
2021/11/25 05:32:16;;;;;;;32.97;20.73;;;1.10;79.80;;;;;;5067166;28;20032;-62
2021/11/25 05:34:46;;;;;;;34.00;19.90;;;1.10;79.90;;;;;;5051306;28;20029;-62
2021/11/25 05:37:16;;;;;;;34.58;19.20;;;1.10;80.10;;;;;;5049862;28;20476;-62
2021/11/25 05:39:42;;;;;;;31.90;18.88;;;1.10;80.20;;;;;;5034581;28;20026;-61
2021/11/25 05:42:09;;;;;;;33.88;21.08;;;1.10;80.00;;;;;;5036772;28;20078;-61
2021/11/25 05:44:35;;;;;;;34.47;20.63;;;1.20;80.30;;;;;;5051510;28;20695;-62
2021/11/25 05:47:01;;;;;;;32.20;19.50;;;1.20;79.70;;;;;;5052041;28;20037;-62
2021/11/25 05:49:27;;;;;;;33.60;19.92;;;1.20;79.90;;;;;;5063446;28;20086;-61
2021/11/25 05:51:53;;;;;;;29.60;18.77;;;1.30;79.80;;;;;;5068121;28;20564;-61
2021/11/25 05:54:18;;;;;;;28.30;17.95;;;1.30;79.90;;;;;;5056867;28;20125;-61
2021/11/25 05:56:45;;;;;;;30.45;19.00;;;1.20;80.20;;;;;;5074724;28;20059;-62
2021/11/25 05:59:10;;;;;;;29.00;18.85;;;1.30;80.20;;;;;;5063888;28;20025;-62
2021/11/25 06:01:36;;;;;;;26.63;17.98;;;1.20;80.20;;;;;;5056740;28;20025;-62
2021/11/25 06:04:02;;;;;;;29.77;18.85;;;1.30;80.20;;;;;;5061960;28;20036;-62
2021/11/25 06:06:28;;;;;;;29.75;19.15;;;1.30;79.90;;;;;;5054578;28;20471;-63
2021/11/25 06:08:54;;;;;;;32.15;19.40;;;1.40;79.50;;;;;;5056243;28;20059;-61
2021/11/25 06:11:19;;;;;;;31.85;19.70;;;1.50;79.40;;;;;;5061141;28;20487;-66
2021/11/25 06:13:45;;;;;;;29.50;19.17;;;1.60;79.10;;;;;;5057520;28;20032;-66
2021/11/25 06:16:11;;;;;;;30.90;19.63;;;1.60;78.90;;;;;;5053795;28;20025;-66
2021/11/25 06:18:38;;;;;;;32.15;20.38;;;1.60;79.10;;;;;;5056756;28;20031;-66
2021/11/25 06:21:04;;;;;;;31.27;20.20;;;1.60;79.40;;;;;;5061153;28;20024;-67
2021/11/25 06:23:30;;;;;;;34.28;22.80;;;1.60;79.10;;;;;;5066698;28;20059;-66
2021/11/25 06:25:56;;;;;;;34.78;21.80;;;1.70;79.00;;;;;;5067121;28;20064;-66
2021/11/25 06:28:22;;;;;;;36.55;22.85;;;1.70;79.00;;;;;;5064079;28;20036;-66
2021/11/25 06:30:48;;;;;;;36.97;23.13;;;1.80;78.60;;;;;;5054233;28;20033;-67
2021/11/25 06:33:13;;;;;;;33.55;21.30;;;1.90;78.50;;;;;;5054314;28;20059;-66
2021/11/25 06:35:39;;;;;;;32.33;20.42;;;1.90;78.50;;;;;;5058098;28;20028;-66
2021/11/25 06:38:05;;;;;;;31.58;19.38;;;2.00;78.80;;;;;;5069324;28;20025;-66
2021/11/25 06:40:33;;;;;;;31.48;18.75;;;2.00;78.90;;;;;;5069010;28;20021;-67
2021/11/25 06:43:02;;;;;;;31.70;19.88;;;2.10;78.90;;;;;;5061349;28;20120;-66
2021/11/25 06:45:28;;;;;;;34.13;21.13;;;2.20;78.70;;;;;;5054647;28;20084;-67
2021/11/25 06:47:55;;;;;;;32.47;20.38;;;2.30;78.10;;;;;;5053376;28;20025;-67
2021/11/25 06:50:22;;;;;;;37.10;23.10;;;2.30;78.20;;;;;;5053646;28;20040;-68
2021/11/25 06:52:49;;;;;;;35.83;23.58;;;2.40;78.00;;;;;;5054065;28;20029;-67
2021/11/25 06:55:16;;;;;;;36.50;23.02;;;2.50;78.10;;;;;;5053414;28;20017;-67
2021/11/25 06:57:48;;;;;;;34.38;22.50;;;2.50;78.00;;;;;;5053488;28;20021;-67
2021/11/25 07:00:15;;;;;;;34.70;22.85;;;2.50;77.80;;;;;;5053512;28;20025;-67
2021/11/25 07:02:42;;;;;;;38.33;23.35;;;2.60;77.80;;;;;;5052815;28;20078;-67
2021/11/25 07:05:09;;;;;;;35.40;22.83;;;2.70;77.20;;;;;;5052882;28;20029;-68
2021/11/25 07:07:35;;;;;;;36.28;23.75;;;2.80;76.90;;;;;;5053322;28;20091;-67
2021/11/25 07:10:02;;;;;;;33.08;22.15;;;2.80;76.50;;;;;;5052060;28;20391;-68
2021/11/25 07:12:27;;;;;;;35.78;23.10;;;2.90;76.30;;;;;;5053212;28;20029;-67
2021/11/25 07:14:53;;;;;;;36.95;23.30;;;2.90;76.20;;;;;;5053622;28;20110;-67
2021/11/25 07:17:19;;;;;;;38.22;24.05;;;3.00;76.40;;;;;;5053235;28;20025;-67
2021/11/25 07:19:45;;;;;;;33.40;20.88;;;3.10;75.70;;;;;;5053093;28;20083;-67
2021/11/25 07:22:10;;;;;;;35.30;21.20;;;3.10;75.50;;;;;;5053095;28;20025;-68
2021/11/25 07:24:36;;;;;;;28.90;19.15;;;3.20;75.20;;;;;;5051959;28;20044;-68
2021/11/25 07:27:03;;;;;;;30.30;18.58;;;3.10;75.40;;;;;;5047303;28;20041;-67
2021/11/25 07:29:29;;;;;;;28.42;18.20;;;3.20;75.10;;;;;;5052821;28;20469;-67
2021/11/25 07:31:55;;;;;;;29.42;18.38;;;3.30;74.70;;;;;;5051440;28;20435;-68
2021/11/25 07:34:21;;;;;;;31.55;19.13;;;3.30;74.80;;;;;;5052755;28;20033;-67
2021/11/25 07:36:46;;;;;;;29.58;18.67;;;3.30;75.00;;;;;;5053146;28;20018;-67
2021/11/25 07:39:12;;;;;;;32.42;19.10;;;3.20;75.90;;;;;;5052883;28;20524;-67
2021/11/25 07:41:38;;;;;;;32.17;21.05;;;3.30;74.90;;;;;;5052875;28;20116;-67
2021/11/25 07:44:05;;;;;;;33.40;20.77;;;3.40;74.10;;;;;;5053294;28;20027;-67
2021/11/25 07:46:31;;;;;;;35.17;21.23;;;3.40;74.60;;;;;;5052535;28;20037;-67
2021/11/25 07:48:58;;;;;;;30.88;19.73;;;3.40;75.00;;;;;;5052875;28;20380;-68
2021/11/25 07:51:24;;;;;;;29.35;19.58;;;3.50;74.40;;;;;;5052025;28;20016;-67
2021/11/25 07:53:50;;;;;;;30.48;19.25;;;3.50;74.30;;;;;;5052812;28;20021;-67
2021/11/25 07:56:16;;;;;;;33.50;20.60;;;3.50;74.70;;;;;;5052121;28;20029;-67
2021/11/25 07:58:42;;;;;;;37.63;23.10;;;3.60;74.70;;;;;;5052561;28;20046;-68
2021/11/25 08:01:07;;;;;;;36.65;21.58;;;3.70;73.50;;;;;;5051951;28;20036;-66
2021/11/25 08:03:33;;;;;;;34.20;20.70;;;3.70;73.10;;;;;;5059563;28;20369;-67
2021/11/25 08:06:00;;;;;;;35.03;20.63;;;3.80;73.00;;;;;;5054649;28;20036;-69
2021/11/25 08:08:26;;;;;;;30.42;19.60;;;3.80;73.20;;;;;;5052617;28;20095;-67
2021/11/25 08:10:51;;;;;;;33.75;21.55;;;3.80;73.20;;;;;;5052499;28;20896;-74
2021/11/25 08:13:17;;;;;;;32.00;20.08;;;3.80;72.80;;;;;;5064348;28;20102;-67
2021/11/25 08:15:43;;;;;;;28.35;18.50;;;3.80;73.00;;;;;;5057205;28;20028;-67
2021/11/25 08:18:09;;;;;;;30.98;18.55;;;3.80;73.10;;;;;;5069079;28;20033;-66
2021/11/25 08:20:34;;;;;;;29.63;19.33;;;3.80;72.60;;;;;;5055669;28;20527;-67
2021/11/25 08:23:00;;;;;;;31.75;20.35;;;3.90;72.70;;;;;;5052282;28;20025;-66
2021/11/25 08:25:27;;;;;;;33.55;21.23;;;3.90;72.50;;;;;;5061589;28;20066;-67
2021/11/25 08:27:57;;;;;;;29.55;19.27;;;4.10;72.10;;;;;;5072201;28;20460;-66
2021/11/25 08:30:24;;;;;;;31.08;18.27;;;4.10;71.90;;;;;;5072568;28;20025;-66
2021/11/25 08:32:50;;;;;;;29.38;18.65;;;4.10;73.00;;;;;;5070439;28;20475;-76
2021/11/25 08:35:16;;;;;;;27.00;17.70;;;4.10;72.00;;;;;;5056826;28;20448;-69
2021/11/25 08:37:43;;;;;;;28.48;17.42;;;4.20;71.80;;;;;;5066067;28;20039;-68
2021/11/25 08:40:12;;;;;;;29.80;18.75;;;4.20;71.80;;;;;;5056688;28;20033;-76
2021/11/25 08:42:38;;;;;;;30.73;18.83;;;4.30;71.10;;;;;;5050806;28;20120;-75
2021/11/25 08:45:05;;;;;;;31.70;18.90;;;4.40;70.90;;;;;;5066595;28;20450;-66
2021/11/25 08:47:31;;;;;;;31.80;19.40;;;4.40;70.90;;;;;;5071842;28;20028;-65
2021/11/25 08:49:56;;;;;;;29.77;18.85;;;4.50;70.30;;;;;;5067593;28;20021;-65
2021/11/25 08:52:22;;;;;;;29.75;18.35;;;4.50;70.10;;;;;;5060780;28;20029;-65
2021/11/25 08:54:48;;;;;;;28.40;18.67;;;4.40;70.50;;;;;;5071493;28;20027;-65
2021/11/25 08:57:14;;;;;;;29.67;18.35;;;4.50;70.30;;;;;;5071798;28;20472;-65
2021/11/25 08:59:40;;;;;;;28.15;17.55;;;4.50;70.90;;;;;;5071713;28;20028;-65
2021/11/25 09:02:06;;;;;;;26.48;16.38;;;4.50;70.70;;;;;;5071570;28;20535;-65
2021/11/25 09:04:31;;;;;;;22.85;15.63;;;4.50;70.60;;;;;;5071654;28;20097;-66
2021/11/25 09:06:58;;;;;;;26.33;17.38;;;4.50;71.00;;;;;;5071671;28;20508;-65
2021/11/25 09:09:24;;;;;;;25.05;17.25;;;4.70;69.60;;;;;;5071392;28;20086;-66
2021/11/25 09:11:50;;;;;;;26.20;17.30;;;4.70;69.10;;;;;;5071110;28;20049;-66
2021/11/25 09:14:15;;;;;;;24.70;16.70;;;4.70;69.00;;;;;;5059807;28;20078;-65
2021/11/25 09:16:42;;;;;;;23.33;15.60;;;4.60;69.60;;;;;;5031548;28;20485;-66
2021/11/25 09:19:08;;;;;;;30.25;17.75;;;4.70;68.80;;;;;;5031643;28;20434;-64
2021/11/25 09:21:34;;;;;;;25.65;17.08;;;4.70;69.20;;;;;;5031609;28;20057;-65
2021/11/25 09:24:04;;;;;;;22.73;15.98;;;4.70;69.70;;;;;;5031501;28;20025;-65
2021/11/25 09:26:31;;;;;;;25.15;17.30;;;4.80;69.50;;;;;;5031623;28;20387;-67
2021/11/25 09:29:00;;;;;;;24.30;16.92;;;4.80;69.20;;;;;;5035549;28;20117;-64
2021/11/25 09:31:27;;;;;;;26.23;16.50;;;4.90;69.40;;;;;;5035173;28;20029;-65
2021/11/25 09:33:53;;;;;;;23.90;15.88;;;4.90;69.50;;;;;;5035247;28;20378;-65
2021/11/25 09:36:19;;;;;;;22.65;15.63;;;5.10;67.70;;;;;;5035460;28;20055;-65
2021/11/25 09:38:45;;;;;;;22.25;15.40;;;5.10;68.00;;;;;;5035341;28;20026;-65
2021/11/25 09:41:11;;;;;;;24.05;16.08;;;5.10;68.20;;;;;;5035257;28;20106;-65
2021/11/25 09:43:37;;;;;;;25.83;17.58;;;5.20;68.10;;;;;;5035234;28;20029;-64
2021/11/25 09:46:05;;;;;;;23.45;16.45;;;5.10;68.10;;;;;;5035027;28;20481;-66
2021/11/25 09:48:33;;;;;;;24.40;16.23;;;5.10;68.80;;;;;;5035489;28;20029;-66
2021/11/25 09:50:58;;;;;;;24.45;16.75;;;5.20;69.00;;;;;;5035367;28;20085;-66
2021/11/25 09:53:26;;;;;;;26.95;16.50;;;5.30;68.40;;;;;;5035361;28;20067;-65
2021/11/25 09:55:54;;;;;;;22.83;15.88;;;5.40;68.20;;;;;;5035436;28;20088;-66
2021/11/25 09:58:23;;;;;;;24.35;16.55;;;5.50;68.70;;;;;;5035368;28;20018;-65
2021/11/25 10:00:57;;;;;;;23.48;15.68;;;5.70;68.30;;;;;;5035054;28;20022;-66
2021/11/25 10:03:22;;;;;;;22.40;15.82;;;6.00;65.90;;;;;;5035170;28;20014;-65
2021/11/25 10:05:54;;;;;;;21.52;15.93;;;6.00;66.10;;;;;;5034798;28;20028;-65
2021/11/25 10:08:22;;;;;;;23.75;16.08;;;6.10;65.50;;;;;;5034871;28;20059;-66
2021/11/25 10:10:58;;;;;;;23.35;16.80;;;6.20;64.30;;;;;;5034518;28;20135;-66
2021/11/25 10:13:32;;;;;;;25.05;16.80;;;6.30;63.60;;;;;;5034711;28;20045;-69
2021/11/25 10:15:58;;;;;;;22.23;16.35;;;6.30;63.50;;;;;;5034718;28;20090;-66
2021/11/25 10:18:23;;;;;;;22.75;15.85;;;6.20;63.80;;;;;;5034627;28;20108;-66
2021/11/25 10:20:52;;;;;;;24.55;16.33;;;6.00;64.30;;;;;;5034720;28;20461;-66
2021/11/25 10:23:29;;;;;;;22.20;16.00;;;6.10;63.80;;;;;;5034573;28;20034;-66
2021/11/25 10:26:07;;;;;;;22.10;15.10;;;6.00;63.60;;;;;;5034496;28;20018;-65
2021/11/25 10:28:51;;;;;;;22.90;16.65;;;5.90;63.80;;;;;;5037811;28;20025;-65
2021/11/25 10:31:24;;;;;;;20.60;15.25;;;6.00;63.30;;;;;;5034100;28;20465;-65
2021/11/25 10:34:17;;;;;;;22.30;15.10;;;6.00;62.60;;;;;;5034146;28;20036;-65
2021/11/25 10:42:13;;;;;;;24.42;16.77;;;5.90;63.50;;;;;;5034214;28;20041;-65
2021/11/25 10:44:59;;;;;;;22.27;15.25;;;5.90;63.20;;;;;;5034366;28;20033;-65
2021/11/25 10:47:28;;;;;;;20.60;14.82;;;6.00;63.30;;;;;;5033941;28;20033;-65
2021/11/25 10:49:59;;;;;;;20.70;15.20;;;6.20;62.10;;;;;;5034048;28;20028;-65
2021/11/25 10:52:41;;;;;;;19.52;13.85;;;6.20;62.50;;;;;;5033868;28;20021;-64
2021/11/25 10:55:21;;;;;;;23.48;15.48;;;6.20;62.80;;;;;;5034242;28;20438;-65
2021/11/25 10:57:48;;;;;;;20.95;15.02;;;6.20;62.40;;;;;;5034242;28;20054;-65
2021/11/25 11:00:22;;;;;;;21.63;15.05;;;6.10;63.00;;;;;;5033928;28;20028;-65
2021/11/25 11:02:48;;;;;;;21.02;14.93;;;6.20;63.60;;;;;;5033985;28;20030;-66
2021/11/25 11:05:21;;;;;;;20.42;14.55;;;6.20;62.80;;;;;;5033970;28;20068;-66
2021/11/25 11:07:47;;;;;;;21.55;15.60;;;6.30;61.50;;;;;;5033736;28;20061;-65
2021/11/25 11:10:26;;;;;;;19.00;14.13;;;6.30;60.80;;;;;;5033681;28;20084;-66
2021/11/25 11:15:32;;;;;;;19.73;15.05;;;6.20;60.90;;;;;;5033626;28;20033;-65
2021/11/25 11:20:28;;;;;;;17.70;13.32;;;6.20;58.20;;;;;;5034005;28;20484;-67
2021/11/25 11:22:58;;;;;;;23.83;14.73;;;6.00;58.20;;;;;;5033611;28;20087;-65
2021/11/25 11:25:25;;;;;;;18.45;12.95;;;6.10;57.60;;;;;;5033259;28;20022;-65
2021/11/25 11:27:56;;;;;;;21.27;14.95;;;6.00;57.00;;;;;;5033389;28;20022;-65
2021/11/25 11:30:23;;;;;;;16.50;12.35;;;5.90;57.80;;;;;;5033388;28;20033;-65
2021/11/25 11:32:51;;;;;;;15.93;11.30;;;6.00;57.50;;;;;;5033379;28;20091;-64
2021/11/25 11:35:22;;;;;;;17.52;12.20;;;6.00;56.80;;;;;;5033457;28;20021;-65
2021/11/25 11:37:49;;;;;;;15.85;11.70;;;5.80;57.30;;;;;;5032894;28;20024;-65
2021/11/25 11:40:15;;;;;;;18.65;12.65;;;5.70;57.70;;;;;;5033042;28;20025;-65
2021/11/25 11:42:42;;;;;;;18.23;12.23;;;5.70;57.80;;;;;;5032711;28;20428;-64
2021/11/25 11:45:09;;;;;;;17.55;11.98;;;5.70;57.40;;;;;;5032716;28;20060;-64
2021/11/25 11:47:36;;;;;;;17.70;11.93;;;5.70;57.00;;;;;;5032772;28;20447;-66
2021/11/25 11:50:10;;;;;;;15.77;12.27;;;5.70;57.60;;;;;;5032351;28;20109;-66
2021/11/25 11:52:54;;;;;;;15.90;12.07;;;5.60;58.30;;;;;;5032199;28;20039;-65
2021/11/25 11:55:36;;;;;;;15.43;10.98;;;5.50;58.20;;;;;;5032628;28;20017;-65
2021/11/25 11:58:20;;;;;;;18.60;12.00;;;5.50;59.00;;;;;;5032313;28;20029;-64
2021/11/25 12:00:46;;;;;;;17.52;12.45;;;5.40;58.90;;;;;;5031353;28;20098;-64
2021/11/25 12:03:29;;;;;;;17.77;12.52;;;5.50;59.40;;;;;;5031710;28;20480;-66
2021/11/25 12:05:54;;;;;;;16.92;12.80;;;5.50;59.20;;;;;;5031597;28;20798;-65
2021/11/25 12:08:20;;;;;;;16.77;12.18;;;5.40;59.20;;;;;;5031675;28;20026;-65
2021/11/25 12:10:55;;;;;;;17.17;11.88;;;5.60;59.20;;;;;;5031663;28;20041;-65
2021/11/25 12:13:22;;;;;;;18.45;12.52;;;5.50;58.60;;;;;;5032315;28;20017;-65
2021/11/25 12:15:48;;;;;;;17.52;12.63;;;5.50;58.80;;;;;;5035417;28;20021;-66
2021/11/25 12:18:36;;;;;;;16.08;12.80;;;5.50;59.20;;;;;;5032406;28;20026;-64
2021/11/25 12:21:03;;;;;;;16.52;12.23;;;5.50;59.40;;;;;;5032368;28;20040;-66
2021/11/25 12:23:46;;;;;;;18.98;13.27;;;5.60;59.30;;;;;;5032368;28;20057;-65
2021/11/25 12:26:12;;;;;;;19.38;13.85;;;5.60;59.10;;;;;;5032240;28;20029;-65
2021/11/25 12:28:43;;;;;;;17.90;12.80;;;5.60;59.20;;;;;;5032039;28;20545;-66
2021/11/25 12:33:46;;;;;;;19.95;13.73;;;5.50;59.60;;;;;;5032102;28;20029;-64
2021/11/25 12:36:35;;;;;;;20.83;13.73;;;5.60;59.40;;;;;;5031747;28;20468;-64
2021/11/25 12:39:01;;;;;;;23.80;15.07;;;5.60;59.40;;;;;;5030149;28;20072;-66
2021/11/25 12:41:27;;;;;;;23.27;15.52;;;5.70;59.30;;;;;;5032194;28;20029;-66
2021/11/25 12:43:53;;;;;;;20.75;15.38;;;5.70;59.50;;;;;;5032044;28;20041;-66
2021/11/25 12:46:19;;;;;;;19.63;13.30;;;5.70;59.20;;;;;;5032139;28;20787;-64
2021/11/25 12:48:51;;;;;;;17.77;12.35;;;5.60;59.60;;;;;;5032080;28;20026;-66
2021/11/25 12:51:18;;;;;;;15.75;11.20;;;5.70;58.80;;;;;;5031812;28;20022;-66
2021/11/25 12:53:43;;;;;;;16.33;11.70;;;5.60;58.70;;;;;;5031804;28;20070;-64
2021/11/25 12:56:12;;;;;;;17.75;12.40;;;5.40;59.40;;;;;;5031764;28;20025;-64
2021/11/25 12:58:56;;;;;;;19.83;13.25;;;5.50;60.00;;;;;;5030218;28;20026;-65